sensor_id;sensor_type;location;lat;lon;timestamp;pressure;altitude;pressure_sealevel;temperature;humidity
8637;BME280;4356;49.068;8.658;2024-02-14T00:00:07;100354.88;;;16.08;43.46
8637;BME280;4356;49.068;8.658;2024-02-14T00:02:35;100350.66;;;16.05;43.57
8637;BME280;4356;49.068;8.658;2024-02-14T00:05:02;100356.72;;;16.07;43.61
8637;BME280;4356;49.068;8.658;2024-02-14T00:07:28;100352.56;;;16.05;43.54
8637;BME280;4356;49.068;8.658;2024-02-14T00:09:53;100360.50;;;16.06;43.84
8637;BME280;4356;49.068;8.658;2024-02-14T00:12:19;100357.13;;;16.04;43.89
8637;BME280;4356;49.068;8.658;2024-02-14T00:14:44;100354.63;;;16.03;43.87
8637;BME280;4356;49.068;8.658;2024-02-14T00:17:10;100359.00;;;16.04;43.97
8637;BME280;4356;49.068;8.658;2024-02-14T00:19:35;100360.41;;;16.00;44.10
8637;BME280;4356;49.068;8.658;2024-02-14T00:22:01;100354.81;;;16.01;43.92
8637;BME280;4356;49.068;8.658;2024-02-14T00:24:26;100362.09;;;16.01;43.98
8637;BME280;4356;49.068;8.658;2024-02-14T00:26:53;100349.31;;;15.95;44.22
8637;BME280;4356;49.068;8.658;2024-02-14T00:29:19;100350.38;;;15.94;44.27
8637;BME280;4356;49.068;8.658;2024-02-14T00:31:44;100350.56;;;15.92;44.25
8637;BME280;4356;49.068;8.658;2024-02-14T00:34:10;100369.59;;;15.99;44.31
8637;BME280;4356;49.068;8.658;2024-02-14T00:36:36;100376.88;;;15.98;44.15
8637;BME280;4356;49.068;8.658;2024-02-14T00:39:01;100369.53;;;15.92;44.34
8637;BME280;4356;49.068;8.658;2024-02-14T00:41:27;100374.56;;;15.95;44.54
8637;BME280;4356;49.068;8.658;2024-02-14T00:43:55;100373.91;;;15.93;44.50
8637;BME280;4356;49.068;8.658;2024-02-14T00:46:20;100373.25;;;15.91;44.41
8637;BME280;4356;49.068;8.658;2024-02-14T00:48:46;100377.47;;;15.94;44.22
8637;BME280;4356;49.068;8.658;2024-02-14T00:51:11;100374.97;;;15.92;44.45
8637;BME280;4356;49.068;8.658;2024-02-14T00:53:37;100360.47;;;15.85;44.36
8637;BME280;4356;49.068;8.658;2024-02-14T00:56:03;100373.06;;;15.93;44.60
8637;BME280;4356;49.068;8.658;2024-02-14T00:58:28;100368.69;;;15.92;44.64
8637;BME280;4356;49.068;8.658;2024-02-14T01:00:53;100372.25;;;15.92;44.71
8637;BME280;4356;49.068;8.658;2024-02-14T01:03:19;100349.78;;;15.77;44.79
8637;BME280;4356;49.068;8.658;2024-02-14T01:05:44;100348.56;;;15.80;44.69
8637;BME280;4356;49.068;8.658;2024-02-14T01:08:10;100361.78;;;15.89;44.46
8637;BME280;4356;49.068;8.658;2024-02-14T01:10:35;100367.19;;;15.89;44.70
8637;BME280;4356;49.068;8.658;2024-02-14T01:13:01;100355.53;;;15.89;44.63
8637;BME280;4356;49.068;8.658;2024-02-14T01:15:26;100354.03;;;15.86;44.77
8637;BME280;4356;49.068;8.658;2024-02-14T01:17:51;100362.81;;;15.88;44.71
8637;BME280;4356;49.068;8.658;2024-02-14T01:20:17;100357.41;;;15.88;44.79
8637;BME280;4356;49.068;8.658;2024-02-14T01:22:43;100354.25;;;15.85;44.83
8637;BME280;4356;49.068;8.658;2024-02-14T01:25:11;100355.53;;;15.89;44.83
8637;BME280;4356;49.068;8.658;2024-02-14T01:27:36;100360.31;;;15.87;45.03
8637;BME280;4356;49.068;8.658;2024-02-14T01:30:02;100350.69;;;15.84;44.71
8637;BME280;4356;49.068;8.658;2024-02-14T01:32:27;100356.75;;;15.86;44.69
8637;BME280;4356;49.068;8.658;2024-02-14T01:34:54;100340.88;;;15.83;44.80
8637;BME280;4356;49.068;8.658;2024-02-14T01:37:20;100344.63;;;15.82;44.85
8637;BME280;4356;49.068;8.658;2024-02-14T01:39:46;100344.22;;;15.85;44.98
8637;BME280;4356;49.068;8.658;2024-02-14T01:42:11;100339.00;;;15.84;45.04
8637;BME280;4356;49.068;8.658;2024-02-14T01:44:36;100334.41;;;15.84;44.96
8637;BME280;4356;49.068;8.658;2024-02-14T01:47:02;100327.34;;;15.83;44.58
8637;BME280;4356;49.068;8.658;2024-02-14T01:49:28;100323.97;;;15.81;44.69
8637;BME280;4356;49.068;8.658;2024-02-14T01:51:55;100312.50;;;15.79;44.67
8637;BME280;4356;49.068;8.658;2024-02-14T01:54:24;100311.66;;;15.79;44.52
8637;BME280;4356;49.068;8.658;2024-02-14T01:56:51;100308.38;;;15.83;44.42
8637;BME280;4356;49.068;8.658;2024-02-14T01:59:16;100303.97;;;15.82;44.67
8637;BME280;4356;49.068;8.658;2024-02-14T02:01:43;100299.19;;;15.84;44.61
8637;BME280;4356;49.068;8.658;2024-02-14T02:04:08;100305.56;;;15.77;44.56
8637;BME280;4356;49.068;8.658;2024-02-14T02:06:34;100300.59;;;15.80;44.15
8637;BME280;4356;49.068;8.658;2024-02-14T02:09:00;100287.47;;;15.77;44.43
8637;BME280;4356;49.068;8.658;2024-02-14T02:11:25;100302.09;;;15.83;44.41
8637;BME280;4356;49.068;8.658;2024-02-14T02:13:51;100301.66;;;15.79;44.05
8637;BME280;4356;49.068;8.658;2024-02-14T02:16:17;100308.09;;;15.78;44.22
8637;BME280;4356;49.068;8.658;2024-02-14T02:18:45;100301.44;;;15.81;43.95
8637;BME280;4356;49.068;8.658;2024-02-14T02:21:10;100285.59;;;15.78;43.99
8637;BME280;4356;49.068;8.658;2024-02-14T02:23:38;100265.53;;;15.72;44.15
8637;BME280;4356;49.068;8.658;2024-02-14T02:26:06;100263.59;;;15.66;44.38
8637;BME280;4356;49.068;8.658;2024-02-14T02:28:31;100276.63;;;15.77;44.01
8637;BME280;4356;49.068;8.658;2024-02-14T02:30:56;100273.25;;;15.75;44.42
8637;BME280;4356;49.068;8.658;2024-02-14T02:33:22;100272.22;;;15.76;44.11
8637;BME280;4356;49.068;8.658;2024-02-14T02:35:48;100258.19;;;15.66;44.12
8637;BME280;4356;49.068;8.658;2024-02-14T02:38:15;100258.56;;;15.63;44.11
8637;BME280;4356;49.068;8.658;2024-02-14T02:40:41;100274.31;;;15.74;44.39
8637;BME280;4356;49.068;8.658;2024-02-14T02:43:06;100279.09;;;15.72;44.21
8637;BME280;4356;49.068;8.658;2024-02-14T02:45:32;100284.50;;;15.72;44.03
8637;BME280;4356;49.068;8.658;2024-02-14T02:47:57;100284.69;;;15.71;44.21
8637;BME280;4356;49.068;8.658;2024-02-14T02:50:22;100283.22;;;15.68;44.03
8637;BME280;4356;49.068;8.658;2024-02-14T02:52:48;100265.41;;;15.59;44.02
8637;BME280;4356;49.068;8.658;2024-02-14T02:55:13;100284.22;;;15.67;44.28
8637;BME280;4356;49.068;8.658;2024-02-14T02:57:41;100281.72;;;15.66;43.82
8637;BME280;4356;49.068;8.658;2024-02-14T03:00:07;100295.06;;;15.67;43.97
8637;BME280;4356;49.068;8.658;2024-02-14T03:02:37;100288.81;;;15.67;44.04
8637;BME280;4356;49.068;8.658;2024-02-14T03:05:05;100296.09;;;15.66;43.98
8637;BME280;4356;49.068;8.658;2024-02-14T03:07:36;100289.19;;;15.64;44.09
8637;BME280;4356;49.068;8.658;2024-02-14T03:10:01;100300.69;;;15.66;43.93
8637;BME280;4356;49.068;8.658;2024-02-14T03:12:28;100302.56;;;15.65;44.40
8637;BME280;4356;49.068;8.658;2024-02-14T03:14:56;100303.38;;;15.66;44.14
8637;BME280;4356;49.068;8.658;2024-02-14T03:17:23;100303.38;;;15.66;44.47
8637;BME280;4356;49.068;8.658;2024-02-14T03:19:49;100308.00;;;15.65;44.63
8637;BME280;4356;49.068;8.658;2024-02-14T03:22:17;100296.22;;;15.58;44.66
8637;BME280;4356;49.068;8.658;2024-02-14T03:24:44;100293.16;;;15.61;44.85
8637;BME280;4356;49.068;8.658;2024-02-14T03:27:12;100289.78;;;15.59;44.72
8637;BME280;4356;49.068;8.658;2024-02-14T03:29:37;100296.22;;;15.58;44.95
8637;BME280;4356;49.068;8.658;2024-02-14T03:32:04;100293.50;;;15.58;44.71
8637;BME280;4356;49.068;8.658;2024-02-14T03:34:30;100302.47;;;15.59;44.70
8637;BME280;4356;49.068;8.658;2024-02-14T03:36:56;100306.88;;;15.60;44.93
8637;BME280;4356;49.068;8.658;2024-02-14T03:39:22;100301.63;;;15.58;44.88
8637;BME280;4356;49.068;8.658;2024-02-14T03:41:47;100280.50;;;15.47;44.93
8637;BME280;4356;49.068;8.658;2024-02-14T03:44:13;100298.47;;;15.55;44.56
8637;BME280;4356;49.068;8.658;2024-02-14T03:46:38;100297.47;;;15.56;44.55
8637;BME280;4356;49.068;8.658;2024-02-14T03:49:03;100306.81;;;15.53;44.79
8637;BME280;4356;49.068;8.658;2024-02-14T03:51:29;100309.97;;;15.57;44.87
8637;BME280;4356;49.068;8.658;2024-02-14T03:53:54;100305.78;;;15.54;45.06
8637;BME280;4356;49.068;8.658;2024-02-14T03:56:20;100307.66;;;15.54;44.70
8637;BME280;4356;49.068;8.658;2024-02-14T03:58:45;100298.47;;;15.55;45.02
8637;BME280;4356;49.068;8.658;2024-02-14T04:01:12;100306.25;;;15.58;44.80
8637;BME280;4356;49.068;8.658;2024-02-14T04:03:37;100315.56;;;15.55;45.15
8637;BME280;4356;49.068;8.658;2024-02-14T04:06:03;100309.50;;;15.53;44.64
8637;BME280;4356;49.068;8.658;2024-02-14T04:08:28;100310.34;;;15.54;44.81
8637;BME280;4356;49.068;8.658;2024-02-14T04:10:54;100312.88;;;15.55;44.85
8637;BME280;4356;49.068;8.658;2024-02-14T04:13:20;100314.94;;;15.53;44.74
8637;BME280;4356;49.068;8.658;2024-02-14T04:15:46;100319.34;;;15.54;44.97
8637;BME280;4356;49.068;8.658;2024-02-14T04:18:12;100322.03;;;15.54;44.99
8637;BME280;4356;49.068;8.658;2024-02-14T04:20:38;100326.63;;;15.54;45.02
8637;BME280;4356;49.068;8.658;2024-02-14T04:23:03;100321.19;;;15.54;45.22
8637;BME280;4356;49.068;8.658;2024-02-14T04:25:32;100322.41;;;15.51;45.01
8637;BME280;4356;49.068;8.658;2024-02-14T04:27:57;100311.78;;;15.50;44.96
8637;BME280;4356;49.068;8.658;2024-02-14T04:30:22;100308.88;;;15.51;44.94
8637;BME280;4356;49.068;8.658;2024-02-14T04:32:48;100309.91;;;15.50;45.08
8637;BME280;4356;49.068;8.658;2024-02-14T04:35:14;100315.13;;;15.52;44.98
8637;BME280;4356;49.068;8.658;2024-02-14T04:37:39;100319.03;;;15.49;45.06
8637;BME280;4356;49.068;8.658;2024-02-14T04:40:08;100315.72;;;15.47;45.04
8637;BME280;4356;49.068;8.658;2024-02-14T04:42:35;100327.81;;;15.51;44.96
8637;BME280;4356;49.068;8.658;2024-02-14T04:45:00;100320.28;;;15.47;44.96
8637;BME280;4356;49.068;8.658;2024-02-14T04:47:26;100318.22;;;15.49;45.18
8637;BME280;4356;49.068;8.658;2024-02-14T04:49:51;100319.44;;;15.46;45.16
8637;BME280;4356;49.068;8.658;2024-02-14T04:52:17;100324.66;;;15.48;45.34
8637;BME280;4356;49.068;8.658;2024-02-14T04:54:42;100316.94;;;15.44;45.01
8637;BME280;4356;49.068;8.658;2024-02-14T04:57:08;100321.31;;;15.45;45.30
8637;BME280;4356;49.068;8.658;2024-02-14T04:59:33;100327.38;;;15.48;44.99
8637;BME280;4356;49.068;8.658;2024-02-14T05:01:58;100329.06;;;15.49;45.12
8637;BME280;4356;49.068;8.658;2024-02-14T05:04:25;100319.44;;;15.46;45.36
8637;BME280;4356;49.068;8.658;2024-02-14T05:06:50;100318.16;;;15.42;45.43
8637;BME280;4356;49.068;8.658;2024-02-14T05:09:16;100317.13;;;15.43;45.30
8637;BME280;4356;49.068;8.658;2024-02-14T05:11:41;100323.84;;;15.47;45.47
8637;BME280;4356;49.068;8.658;2024-02-14T05:14:07;100316.72;;;15.46;45.15
8637;BME280;4356;49.068;8.658;2024-02-14T05:16:32;100321.94;;;15.48;45.39
8637;BME280;4356;49.068;8.658;2024-02-14T05:18:58;100327.75;;;15.44;45.40
8637;BME280;4356;49.068;8.658;2024-02-14T05:21:23;100331.97;;;15.47;45.10
8637;BME280;4356;49.068;8.658;2024-02-14T05:23:49;100316.09;;;15.44;45.39
8637;BME280;4356;49.068;8.658;2024-02-14T05:26:15;100329.44;;;15.45;45.54
8637;BME280;4356;49.068;8.658;2024-02-14T05:28:40;100326.91;;;15.44;45.38
8637;BME280;4356;49.068;8.658;2024-02-14T05:31:05;100319.19;;;15.41;45.08
8637;BME280;4356;49.068;8.658;2024-02-14T05:33:31;100319.19;;;15.41;45.08
8637;BME280;4356;49.068;8.658;2024-02-14T05:35:56;100313.38;;;15.44;45.25
8637;BME280;4356;49.068;8.658;2024-02-14T05:38:21;100317.97;;;15.43;45.25
8637;BME280;4356;49.068;8.658;2024-02-14T05:40:48;100310.66;;;15.44;45.06
8637;BME280;4356;49.068;8.658;2024-02-14T05:43:14;100313.19;;;15.45;45.30
8637;BME280;4356;49.068;8.658;2024-02-14T05:45:39;100303.78;;;15.41;45.08
8637;BME280;4356;49.068;8.658;2024-02-14T05:48:05;100307.97;;;15.44;45.12
8637;BME280;4356;49.068;8.658;2024-02-14T05:50:31;100294.81;;;15.41;45.22
8637;BME280;4356;49.068;8.658;2024-02-14T05:52:56;100300.69;;;15.44;45.11
8637;BME280;4356;49.068;8.658;2024-02-14T05:55:23;100305.44;;;15.42;45.31
8637;BME280;4356;49.068;8.658;2024-02-14T05:57:48;100308.16;;;15.42;45.26
8637;BME280;4356;49.068;8.658;2024-02-14T06:00:14;100320.69;;;15.43;44.99
8637;BME280;4356;49.068;8.658;2024-02-14T06:02:39;100322.53;;;15.43;45.22
8637;BME280;4356;49.068;8.658;2024-02-14T06:05:06;100312.03;;;15.40;45.20
8637;BME280;4356;49.068;8.658;2024-02-14T06:07:35;100320.69;;;15.43;45.22
8637;BME280;4356;49.068;8.658;2024-02-14T06:10:01;100326.91;;;15.44;45.05
8637;BME280;4356;49.068;8.658;2024-02-14T06:12:26;100333.19;;;15.44;45.41
8637;BME280;4356;49.068;8.658;2024-02-14T06:14:51;100335.50;;;15.48;45.04
8637;BME280;4356;49.068;8.658;2024-02-14T06:17:17;100338.00;;;15.49;45.28
8637;BME280;4356;49.068;8.658;2024-02-14T06:19:42;100338.00;;;15.49;45.27
8637;BME280;4356;49.068;8.658;2024-02-14T06:22:07;100354.56;;;15.54;45.14
8637;BME280;4356;49.068;8.658;2024-02-14T06:24:33;100349.13;;;15.54;45.39
8637;BME280;4356;49.068;8.658;2024-02-14T06:26:58;100347.25;;;15.55;45.20
8637;BME280;4356;49.068;8.658;2024-02-14T06:29:23;100340.09;;;15.47;45.18
8637;BME280;4356;49.068;8.658;2024-02-14T06:31:49;100350.78;;;15.55;45.31
8637;BME280;4356;49.068;8.658;2024-02-14T06:34:15;100355.00;;;15.58;45.38
8637;BME280;4356;49.068;8.658;2024-02-14T06:36:40;100346.03;;;15.57;45.42
8637;BME280;4356;49.068;8.658;2024-02-14T06:39:06;100358.81;;;15.63;45.09
8637;BME280;4356;49.068;8.658;2024-02-14T06:41:32;100366.94;;;15.63;45.17
8637;BME280;4356;49.068;8.658;2024-02-14T06:43:59;100374.69;;;15.66;45.25
8637;BME280;4356;49.068;8.658;2024-02-14T06:46:25;100348.75;;;15.57;45.31
8637;BME280;4356;49.068;8.658;2024-02-14T06:48:50;100366.34;;;15.68;45.29
8637;BME280;4356;49.068;8.658;2024-02-14T06:51:16;100367.84;;;15.70;45.16
8637;BME280;4356;49.068;8.658;2024-02-14T06:53:43;100360.09;;;15.67;45.16
8637;BME280;4356;49.068;8.658;2024-02-14T06:56:08;100357.78;;;15.64;45.16
8637;BME280;4356;49.068;8.658;2024-02-14T06:58:34;100390.22;;;15.79;45.04
8637;BME280;4356;49.068;8.658;2024-02-14T07:01:00;100375.19;;;15.76;45.33
8637;BME280;4356;49.068;8.658;2024-02-14T07:03:25;100376.69;;;15.79;45.12
8637;BME280;4356;49.068;8.658;2024-02-14T07:05:51;100383.59;;;15.81;45.16
8637;BME280;4356;49.068;8.658;2024-02-14T07:08:17;100399.91;;;15.88;45.25
8637;BME280;4356;49.068;8.658;2024-02-14T07:10:42;100387.59;;;15.85;44.95
8637;BME280;4356;49.068;8.658;2024-02-14T07:13:08;100384.50;;;15.88;45.00
8637;BME280;4356;49.068;8.658;2024-02-14T07:15:34;100390.38;;;15.92;44.97
8637;BME280;4356;49.068;8.658;2024-02-14T07:17:59;100393.34;;;15.97;45.10
8637;BME280;4356;49.068;8.658;2024-02-14T07:20:24;100394.38;;;15.96;44.76
8637;BME280;4356;49.068;8.658;2024-02-14T07:22:52;100384.75;;;15.93;45.10
8637;BME280;4356;49.068;8.658;2024-02-14T07:25:19;100398.34;;;16.00;44.81
8637;BME280;4356;49.068;8.658;2024-02-14T07:27:44;100393.13;;;15.98;45.16
8637;BME280;4356;49.068;8.658;2024-02-14T07:30:11;100397.78;;;16.04;45.15
8637;BME280;4356;49.068;8.658;2024-02-14T07:32:37;100395.09;;;16.04;44.95
8637;BME280;4356;49.068;8.658;2024-02-14T07:35:03;100399.47;;;16.05;45.17
8637;BME280;4356;49.068;8.658;2024-02-14T07:37:30;100403.03;;;16.06;45.09
8637;BME280;4356;49.068;8.658;2024-02-14T07:39:56;100398.00;;;16.03;45.24
8637;BME280;4356;49.068;8.658;2024-02-14T07:42:21;100408.03;;;16.09;45.08
8637;BME280;4356;49.068;8.658;2024-02-14T07:44:46;100405.97;;;16.11;45.21
8637;BME280;4356;49.068;8.658;2024-02-14T07:47:12;100396.31;;;16.02;45.17
8637;BME280;4356;49.068;8.658;2024-02-14T07:49:39;100410.38;;;16.12;45.34
8637;BME280;4356;49.068;8.658;2024-02-14T07:52:04;100408.53;;;16.12;45.14
8637;BME280;4356;49.068;8.658;2024-02-14T07:54:30;100416.47;;;16.14;44.98
8637;BME280;4356;49.068;8.658;2024-02-14T07:56:55;100420.44;;;16.18;45.28
8637;BME280;4356;49.068;8.658;2024-02-14T07:59:21;100418.97;;;16.15;45.30
8637;BME280;4356;49.068;8.658;2024-02-14T08:01:46;100429.06;;;16.21;45.32
8637;BME280;4356;49.068;8.658;2024-02-14T08:04:11;100432.56;;;16.22;45.27
8637;BME280;4356;49.068;8.658;2024-02-14T08:06:37;100420.63;;;16.16;45.59
8637;BME280;4356;49.068;8.658;2024-02-14T08:09:02;100418.13;;;16.15;45.35
8637;BME280;4356;49.068;8.658;2024-02-14T08:11:31;100426.97;;;16.23;45.38
8637;BME280;4356;49.068;8.658;2024-02-14T08:13:57;100421.38;;;16.25;45.29
8637;BME280;4356;49.068;8.658;2024-02-14T08:16:23;100430.13;;;16.27;45.43
8637;BME280;4356;49.068;8.658;2024-02-14T08:18:49;100431.41;;;16.31;45.40
8637;BME280;4356;49.068;8.658;2024-02-14T08:21:16;100415.50;;;16.21;45.18
8637;BME280;4356;49.068;8.658;2024-02-14T08:23:41;100421.16;;;16.26;45.41
8637;BME280;4356;49.068;8.658;2024-02-14T08:26:07;100424.78;;;16.33;45.58
8637;BME280;4356;49.068;8.658;2024-02-14T08:28:36;100421.00;;;16.34;45.29
8637;BME280;4356;49.068;8.658;2024-02-14T08:31:02;100442.78;;;16.41;45.41
8637;BME280;4356;49.068;8.658;2024-02-14T08:33:28;100425.41;;;16.35;45.34
8637;BME280;4356;49.068;8.658;2024-02-14T08:35:53;100424.78;;;16.33;45.25
8637;BME280;4356;49.068;8.658;2024-02-14T08:38:22;100437.59;;;16.46;45.43
8637;BME280;4356;49.068;8.658;2024-02-14T08:40:48;100427.53;;;16.40;45.12
8637;BME280;4356;49.068;8.658;2024-02-14T08:43:13;100422.94;;;16.40;45.31
8637;BME280;4356;49.068;8.658;2024-02-14T08:45:39;100435.75;;;16.46;44.91
8637;BME280;4356;49.068;8.658;2024-02-14T08:48:04;100434.97;;;16.53;45.23
8637;BME280;4356;49.068;8.658;2024-02-14T08:50:30;100430.59;;;16.52;45.10
8637;BME280;4356;49.068;8.658;2024-02-14T08:52:56;100430.84;;;16.57;45.21
8637;BME280;4356;49.068;8.658;2024-02-14T08:55:21;100408.25;;;16.50;45.34
8637;BME280;4356;49.068;8.658;2024-02-14T08:57:46;100410.31;;;16.48;45.24
8637;BME280;4356;49.068;8.658;2024-02-14T09:00:15;100436.50;;;16.62;45.46
8637;BME280;4356;49.068;8.658;2024-02-14T09:02:45;100410.31;;;16.48;45.59
8637;BME280;4356;49.068;8.658;2024-02-14T09:05:12;100424.44;;;16.64;45.80
8637;BME280;4356;49.068;8.658;2024-02-14T09:07:37;100432.38;;;16.66;45.68
8637;BME280;4356;49.068;8.658;2024-02-14T09:10:03;100428.63;;;16.67;45.75
8637;BME280;4356;49.068;8.658;2024-02-14T09:12:30;100433.00;;;16.68;45.31
8637;BME280;4356;49.068;8.658;2024-02-14T09:14:57;100438.03;;;16.71;45.62
8637;BME280;4356;49.068;8.658;2024-02-14T09:17:22;100433.69;;;16.76;45.44
8637;BME280;4356;49.068;8.658;2024-02-14T09:19:48;100428.47;;;16.75;45.26
8637;BME280;4356;49.068;8.658;2024-02-14T09:22:13;100420.53;;;16.73;45.37
8637;BME280;4356;49.068;8.658;2024-02-14T09:24:43;100424.75;;;16.76;45.53
8637;BME280;4356;49.068;8.658;2024-02-14T09:27:09;100420.53;;;16.73;45.43
8637;BME280;4356;49.068;8.658;2024-02-14T09:29:34;100422.63;;;16.78;45.42
8637;BME280;4356;49.068;8.658;2024-02-14T09:32:02;100427.47;;;16.82;45.60
8637;BME280;4356;49.068;8.658;2024-02-14T09:34:28;100407.41;;;16.77;45.90
8637;BME280;4356;49.068;8.658;2024-02-14T09:36:54;100416.84;;;16.81;45.72
8637;BME280;4356;49.068;8.658;2024-02-14T09:39:21;100424.16;;;16.87;45.92
8637;BME280;4356;49.068;8.658;2024-02-14T09:41:51;100422.09;;;16.89;45.93
8637;BME280;4356;49.068;8.658;2024-02-14T09:44:20;100415.63;;;16.90;46.13
8637;BME280;4356;49.068;8.658;2024-02-14T09:46:47;100402.22;;;16.82;45.94
8637;BME280;4356;49.068;8.658;2024-02-14T09:49:15;100416.47;;;16.90;46.09
8637;BME280;4356;49.068;8.658;2024-02-14T09:51:45;100416.06;;;16.93;46.19
8637;BME280;4356;49.068;8.658;2024-02-14T09:54:11;100409.13;;;16.84;46.25
8637;BME280;4356;49.068;8.658;2024-02-14T09:56:37;100408.91;;;16.86;46.16
8637;BME280;4356;49.068;8.658;2024-02-14T09:59:03;100428.88;;;16.99;45.50
8637;BME280;4356;49.068;8.658;2024-02-14T10:01:28;100409.16;;;16.91;45.26
8637;BME280;4356;49.068;8.658;2024-02-14T10:03:54;100424.03;;;17.01;45.36
8637;BME280;4356;49.068;8.658;2024-02-14T10:06:21;100412.72;;;16.91;44.84
8637;BME280;4356;49.068;8.658;2024-02-14T10:08:47;100402.91;;;16.90;44.97
8637;BME280;4356;49.068;8.658;2024-02-14T10:11:14;100412.94;;;16.96;44.91
8637;BME280;4356;49.068;8.658;2024-02-14T10:13:41;100409.44;;;17.02;44.83
8637;BME280;4356;49.068;8.658;2024-02-14T10:16:11;100413.63;;;17.05;44.46
8637;BME280;4356;49.068;8.658;2024-02-14T10:18:38;100420.94;;;17.04;44.16
8637;BME280;4356;49.068;8.658;2024-02-14T10:21:04;100419.06;;;17.05;44.19
8637;BME280;4356;49.068;8.658;2024-02-14T10:23:30;100424.31;;;17.06;44.00
8637;BME280;4356;49.068;8.658;2024-02-14T10:25:56;100425.13;;;17.07;44.01
8637;BME280;4356;49.068;8.658;2024-02-14T10:28:22;100430.19;;;17.10;43.90
8637;BME280;4356;49.068;8.658;2024-02-14T10:30:49;100435.19;;;17.13;43.43
8637;BME280;4356;49.068;8.658;2024-02-14T10:33:17;100435.19;;;17.13;43.83
8637;BME280;4356;49.068;8.658;2024-02-14T10:35:44;100444.84;;;17.15;43.57
8637;BME280;4356;49.068;8.658;2024-02-14T10:38:10;100435.84;;;17.15;43.36
8637;BME280;4356;49.068;8.658;2024-02-14T10:40:37;100437.72;;;17.14;43.49
8637;BME280;4356;49.068;8.658;2024-02-14T10:43:08;100448.63;;;17.21;43.19
8637;BME280;4356;49.068;8.658;2024-02-14T10:45:36;100444.22;;;17.20;43.27
8637;BME280;4356;49.068;8.658;2024-02-14T10:48:04;100454.88;;;17.21;43.38
8637;BME280;4356;49.068;8.658;2024-02-14T10:50:34;100455.72;;;17.22;43.23
8637;BME280;4356;49.068;8.658;2024-02-14T10:53:04;100451.34;;;17.21;43.01
8637;BME280;4356;49.068;8.658;2024-02-14T10:55:33;100458.88;;;17.25;42.96
8637;BME280;4356;49.068;8.658;2024-02-14T10:57:58;100455.13;;;17.26;43.47
8637;BME280;4356;49.068;8.658;2024-02-14T11:00:24;100454.50;;;17.24;42.95
8637;BME280;4356;49.068;8.658;2024-02-14T11:02:50;100449.88;;;17.25;43.09
8637;BME280;4356;49.068;8.658;2024-02-14T11:05:19;100451.81;;;17.31;42.92
8637;BME280;4356;49.068;8.658;2024-02-14T11:07:47;100446.16;;;17.32;43.11
8637;BME280;4356;49.068;8.658;2024-02-14T11:10:15;100454.97;;;17.34;42.77
8637;BME280;4356;49.068;8.658;2024-02-14T11:12:40;100454.75;;;17.36;43.05
8637;BME280;4356;49.068;8.658;2024-02-14T11:15:22;100453.72;;;17.37;42.86
8637;BME280;4356;49.068;8.658;2024-02-14T11:17:49;100459.41;;;17.42;42.85
8637;BME280;4356;49.068;8.658;2024-02-14T11:20:19;100446.00;;;17.40;42.74
8637;BME280;4356;49.068;8.658;2024-02-14T11:25:31;100456.06;;;17.46;42.88
8637;BME280;4356;49.068;8.658;2024-02-14T11:28:02;100447.47;;;17.43;42.99
8637;BME280;4356;49.068;8.658;2024-02-14T11:30:40;100447.47;;;17.43;42.85
8637;BME280;4356;49.068;8.658;2024-02-14T11:35:34;100447.34;;;17.51;42.82
8637;BME280;4356;49.068;8.658;2024-02-14T11:37:59;100448.19;;;17.52;42.92
8637;BME280;4356;49.068;8.658;2024-02-14T11:40:25;100450.91;;;17.52;42.98
8637;BME280;4356;49.068;8.658;2024-02-14T11:42:51;100446.13;;;17.54;43.08
8637;BME280;4356;49.068;8.658;2024-02-14T11:45:16;100436.06;;;17.54;42.97
8637;BME280;4356;49.068;8.658;2024-02-14T11:47:41;100437.97;;;17.54;42.87
8637;BME280;4356;49.068;8.658;2024-02-14T11:50:08;100429.81;;;17.54;42.71
8637;BME280;4356;49.068;8.658;2024-02-14T11:52:35;100430.25;;;17.57;42.69
8637;BME280;4356;49.068;8.658;2024-02-14T11:55:00;100430.66;;;17.61;43.30
8637;BME280;4356;49.068;8.658;2024-02-14T11:57:26;100426.03;;;17.61;42.84
8637;BME280;4356;49.068;8.658;2024-02-14T11:59:52;100417.66;;;17.56;43.03
8637;BME280;4356;49.068;8.658;2024-02-14T12:02:19;100422.09;;;17.64;42.63
8637;BME280;4356;49.068;8.658;2024-02-14T12:04:47;100415.81;;;17.63;42.88
8637;BME280;4356;49.068;8.658;2024-02-14T12:07:15;100423.16;;;17.69;42.75
8637;BME280;4356;49.068;8.658;2024-02-14T12:09:43;100435.31;;;17.73;43.10
8637;BME280;4356;49.068;8.658;2024-02-14T12:12:08;100418.78;;;17.68;43.06
8637;BME280;4356;49.068;8.658;2024-02-14T12:14:34;100429.47;;;17.76;42.96
8637;BME280;4356;49.068;8.658;2024-02-14T12:17:00;100400.78;;;17.67;42.85
8637;BME280;4356;49.068;8.658;2024-02-14T12:19:28;100401.00;;;17.66;42.84
8637;BME280;4356;49.068;8.658;2024-02-14T12:21:54;100408.97;;;17.80;42.84
8637;BME280;4356;49.068;8.658;2024-02-14T12:24:21;100407.72;;;17.83;42.69
8637;BME280;4356;49.068;8.658;2024-02-14T12:26:48;100404.81;;;17.84;42.98
8637;BME280;4356;49.068;8.658;2024-02-14T12:29:14;100397.03;;;17.81;43.00
8637;BME280;4356;49.068;8.658;2024-02-14T12:31:39;100384.09;;;17.83;43.00
8637;BME280;4356;49.068;8.658;2024-02-14T12:34:05;100395.81;;;17.90;42.85
8637;BME280;4356;49.068;8.658;2024-02-14T12:36:31;100373.22;;;17.77;43.19
8637;BME280;4356;49.068;8.658;2024-02-14T12:38:58;100406.28;;;17.93;43.26
8637;BME280;4356;49.068;8.658;2024-02-14T12:41:24;100402.53;;;17.94;43.18
8637;BME280;4356;49.068;8.658;2024-02-14T12:43:51;100383.69;;;17.86;43.37
8637;BME280;4356;49.068;8.658;2024-02-14T12:46:17;100394.16;;;17.96;43.40
8637;BME280;4356;49.068;8.658;2024-02-14T12:48:42;100388.50;;;17.97;43.05
8637;BME280;4356;49.068;8.658;2024-02-14T12:51:08;100379.94;;;18.00;43.67
8637;BME280;4356;49.068;8.658;2024-02-14T12:53:34;100368.41;;;17.92;43.42
8637;BME280;4356;49.068;8.658;2024-02-14T12:56:00;100367.38;;;17.93;43.42
8637;BME280;4356;49.068;8.658;2024-02-14T12:58:26;100384.97;;;18.03;43.43
8637;BME280;4356;49.068;8.658;2024-02-14T13:00:52;100382.03;;;18.05;43.33
8637;BME280;4356;49.068;8.658;2024-02-14T13:03:18;100386.88;;;18.09;42.91
8637;BME280;4356;49.068;8.658;2024-02-14T13:05:44;100379.09;;;18.06;43.00
8637;BME280;4356;49.068;8.658;2024-02-14T13:08:10;100373.66;;;18.06;43.06